Time;durP1;ratioP1;P1;durP2;ratioP2;P2;SDS_P1;SDS_P2;PMS_P1;PMS_P2;Temp;Humidity;BMP_temperature;BMP_pressure;BME280_temperature;BME280_humidity;BME280_pressure;Samples;Min_cycle;Max_cycle;Signal;HPM_P1;HPM_P2
2023/04/05 00:02:09;;;;;;;5.30;2.50;;;;;;;;;;5016957;28;20400;-73
2023/04/05 00:04:34;;;;;;;6.53;2.63;;;;;;;;;;5017654;28;20281;-73
2023/04/05 00:07:01;;;;;;;5.35;2.30;;;;;;;;;;5018294;28;20473;-72
2023/04/05 00:09:27;;;;;;;6.28;2.70;;;;;;;;;;5000023;28;20026;-72
2023/04/05 00:11:53;;;;;;;4.88;2.38;;;;;;;;;;5016706;28;20029;-73
2023/04/05 00:14:18;;;;;;;5.28;2.17;;;;;;;;;;5016548;28;20080;-72
2023/04/05 00:16:43;;;;;;;7.55;2.42;;;;;;;;;;5016851;28;20113;-73
2023/04/05 00:19:11;;;;;;;3.45;2.13;;;;;;;;;;5016800;28;20041;-73
2023/04/05 00:21:38;;;;;;;5.50;2.65;;;;;;;;;;4998611;28;20033;-74
2023/04/05 00:24:04;;;;;;;8.02;2.67;;;;;;;;;;5016024;28;20026;-72
2023/04/05 00:26:29;;;;;;;6.40;2.42;;;;;;;;;;4998241;28;20028;-73
2023/04/05 00:28:55;;;;;;;4.88;2.17;;;;;;;;;;5015872;28;20034;-73
2023/04/05 00:31:20;;;;;;;3.53;2.03;;;;;;;;;;5016249;28;20021;-73
2023/04/05 00:33:46;;;;;;;4.70;2.30;;;;;;;;;;5015896;28;20548;-73
2023/04/05 00:36:12;;;;;;;3.88;1.90;;;;;;;;;;5015756;28;20504;-73
2023/04/05 00:38:38;;;;;;;7.82;2.25;;;;;;;;;;5015724;28;20092;-73
2023/04/05 00:41:03;;;;;;;6.57;2.42;;;;;;;;;;4998145;28;20080;-73
2023/04/05 00:43:29;;;;;;;4.35;2.13;;;;;;;;;;5015581;28;20026;-73
2023/04/05 00:45:55;;;;;;;3.30;2.35;;;;;;;;;;4998819;28;20076;-73
2023/04/05 00:48:21;;;;;;;4.10;2.40;;;;;;;;;;4998057;28;20021;-73
2023/04/05 00:50:48;;;;;;;3.70;1.95;;;;;;;;;;4997882;28;20113;-73
2023/04/05 00:53:15;;;;;;;2.67;1.90;;;;;;;;;;5015608;28;20037;-73
2023/04/05 00:55:40;;;;;;;5.20;2.30;;;;;;;;;;5015549;28;20096;-73
2023/04/05 00:58:08;;;;;;;3.22;2.08;;;;;;;;;;4997998;28;20108;-73
2023/04/05 01:00:37;;;;;;;7.95;2.38;;;;;;;;;;5015590;28;20025;-72
2023/04/05 01:03:05;;;;;;;5.82;2.50;;;;;;;;;;4997918;28;20025;-72
2023/04/05 01:05:42;;;;;;;4.15;2.00;;;;;;;;;;4998151;28;20026;-72
2023/04/05 01:08:19;;;;;;;4.88;2.47;;;;;;;;;;5015640;28;20037;-73
2023/04/05 01:10:53;;;;;;;4.18;2.30;;;;;;;;;;5015372;28;20030;-73
2023/04/05 01:13:18;;;;;;;4.68;1.77;;;;;;;;;;5015559;28;20382;-73
2023/04/05 01:15:44;;;;;;;4.20;2.00;;;;;;;;;;5016519;28;20104;-73
2023/04/05 01:18:10;;;;;;;4.50;2.10;;;;;;;;;;4998566;28;20291;-74
2023/04/05 01:20:52;;;;;;;6.03;2.33;;;;;;;;;;5015567;28;20314;-72
2023/04/05 01:23:30;;;;;;;3.38;2.13;;;;;;;;;;5015427;28;20033;-72
2023/04/05 01:26:33;;;;;;;4.00;2.38;;;;;;;;;;4997602;28;20057;-73
2023/04/05 01:29:21;;;;;;;4.35;2.08;;;;;;;;;;4997267;28;20022;-73
2023/04/05 01:32:00;;;;;;;5.32;2.13;;;;;;;;;;5008874;28;20490;-73
2023/04/05 01:34:46;;;;;;;4.78;2.40;;;;;;;;;;4997256;28;20030;-73
2023/04/05 01:37:14;;;;;;;4.03;2.08;;;;;;;;;;5015104;28;20033;-73
2023/04/05 01:39:40;;;;;;;3.45;2.10;;;;;;;;;;4996946;28;20022;-72
2023/04/05 01:42:05;;;;;;;6.10;2.15;;;;;;;;;;4996854;28;20401;-73
2023/04/05 01:44:30;;;;;;;4.07;2.05;;;;;;;;;;5014743;28;20029;-73
2023/04/05 01:46:56;;;;;;;4.70;2.40;;;;;;;;;;5015327;28;20037;-72
2023/04/05 01:49:22;;;;;;;4.03;1.90;;;;;;;;;;5014701;28;20029;-72
2023/04/05 01:51:47;;;;;;;3.15;2.00;;;;;;;;;;5014890;28;20026;-73
2023/04/05 01:54:13;;;;;;;5.53;2.30;;;;;;;;;;4997053;28;20024;-73
2023/04/05 01:56:38;;;;;;;3.88;2.13;;;;;;;;;;4996803;28;20117;-72
2023/04/05 01:59:03;;;;;;;6.20;1.98;;;;;;;;;;5014550;28;20026;-73
2023/04/05 02:01:28;;;;;;;4.93;2.13;;;;;;;;;;5013975;28;20408;-73
2023/04/05 02:03:53;;;;;;;2.88;2.08;;;;;;;;;;5014282;28;20137;-72
2023/04/05 02:06:19;;;;;;;4.38;1.80;;;;;;;;;;5014447;28;20021;-72
2023/04/05 02:08:44;;;;;;;5.25;2.20;;;;;;;;;;5014454;28;20029;-72
2023/04/05 02:11:10;;;;;;;2.95;1.85;;;;;;;;;;5012646;28;20098;-73
2023/04/05 02:13:35;;;;;;;3.22;2.03;;;;;;;;;;4996774;28;20017;-73
2023/04/05 02:16:00;;;;;;;5.13;2.00;;;;;;;;;;5014161;28;20029;-73
2023/04/05 02:18:30;;;;;;;5.35;2.17;;;;;;;;;;5014232;28;20026;-72
2023/04/05 02:21:06;;;;;;;3.97;1.75;;;;;;;;;;4996374;28;20021;-73
2023/04/05 02:23:33;;;;;;;4.00;2.25;;;;;;;;;;5013955;28;20036;-73
2023/04/05 02:25:59;;;;;;;5.05;2.28;;;;;;;;;;4996384;28;20030;-72
2023/04/05 02:28:24;;;;;;;3.03;1.85;;;;;;;;;;4996275;28;20562;-73
2023/04/05 02:30:50;;;;;;;4.47;2.35;;;;;;;;;;5011693;28;20034;-72
2023/04/05 02:33:15;;;;;;;6.03;2.03;;;;;;;;;;4996259;28;20026;-73
2023/04/05 02:35:40;;;;;;;5.93;2.10;;;;;;;;;;5013743;28;20038;-73
2023/04/05 02:38:06;;;;;;;5.00;2.17;;;;;;;;;;5013834;28;20033;-74
2023/04/05 02:40:31;;;;;;;4.35;2.20;;;;;;;;;;4996043;28;20393;-73
2023/04/05 02:42:57;;;;;;;3.60;2.10;;;;;;;;;;5013959;28;20091;-74
2023/04/05 02:45:22;;;;;;;6.00;1.98;;;;;;;;;;5014399;28;20030;-73
2023/04/05 02:47:47;;;;;;;4.65;2.30;;;;;;;;;;4995996;28;20500;-73
2023/04/05 02:50:12;;;;;;;6.03;2.08;;;;;;;;;;5013590;28;20030;-73
2023/04/05 02:52:38;;;;;;;4.47;2.13;;;;;;;;;;5014271;28;20028;-72
2023/04/05 02:55:05;;;;;;;3.67;1.92;;;;;;;;;;4996432;28;20108;-73
2023/04/05 02:57:30;;;;;;;3.83;2.15;;;;;;;;;;5014043;28;20037;-75
2023/04/05 02:59:55;;;;;;;3.65;2.00;;;;;;;;;;5014195;28;20401;-72
2023/04/05 03:02:21;;;;;;;3.22;1.90;;;;;;;;;;5013678;28;20109;-73
2023/04/05 03:04:46;;;;;;;3.38;1.90;;;;;;;;;;5013933;28;20393;-73
2023/04/05 03:07:17;;;;;;;3.47;2.00;;;;;;;;;;5013928;28;20025;-73
2023/04/05 03:09:46;;;;;;;5.07;2.08;;;;;;;;;;5014011;28;20307;-71
2023/04/05 03:12:11;;;;;;;5.38;2.08;;;;;;;;;;5013845;28;20497;-73
2023/04/05 03:14:38;;;;;;;4.18;1.95;;;;;;;;;;5014838;28;20044;-73
2023/04/05 03:17:03;;;;;;;3.50;1.95;;;;;;;;;;5014943;28;20026;-73
2023/04/05 03:19:28;;;;;;;4.32;1.98;;;;;;;;;;5013606;28;20397;-73
2023/04/05 03:21:54;;;;;;;3.50;1.83;;;;;;;;;;4996844;28;20030;-73
2023/04/05 03:24:19;;;;;;;6.47;2.10;;;;;;;;;;5015116;28;20468;-72
2023/04/05 03:26:45;;;;;;;5.65;2.25;;;;;;;;;;5015089;28;20030;-73
2023/04/05 03:29:11;;;;;;;5.63;2.20;;;;;;;;;;5014755;28;20044;-73
2023/04/05 03:31:39;;;;;;;6.60;2.15;;;;;;;;;;5014571;28;20101;-73
2023/04/05 03:34:04;;;;;;;3.55;2.05;;;;;;;;;;4997041;28;20025;-73
2023/04/05 03:36:41;;;;;;;5.25;2.20;;;;;;;;;;5014572;28;20113;-73
2023/04/05 03:39:10;;;;;;;3.40;2.03;;;;;;;;;;5014398;28;20393;-73
2023/04/05 03:41:36;;;;;;;4.93;2.40;;;;;;;;;;5013841;28;20038;-73
2023/04/05 03:44:02;;;;;;;5.38;2.40;;;;;;;;;;5017171;28;20109;-73
2023/04/05 03:46:27;;;;;;;4.70;2.20;;;;;;;;;;5017431;28;20029;-74
2023/04/05 03:48:52;;;;;;;3.45;2.05;;;;;;;;;;5017251;28;20033;-73
2023/04/05 03:51:18;;;;;;;8.32;2.58;;;;;;;;;;4999953;28;20481;-72
2023/04/05 03:53:44;;;;;;;7.55;2.63;;;;;;;;;;5017764;28;20030;-73
2023/04/05 03:56:09;;;;;;;4.63;2.72;;;;;;;;;;5018168;28;20032;-73
2023/04/05 03:58:35;;;;;;;4.68;2.10;;;;;;;;;;5018409;28;20082;-74
2023/04/05 04:01:01;;;;;;;4.47;2.47;;;;;;;;;;5018704;28;20529;-73
2023/04/05 04:03:27;;;;;;;4.00;2.03;;;;;;;;;;5001243;28;20049;-73
2023/04/05 04:05:52;;;;;;;5.75;2.17;;;;;;;;;;4998713;28;20112;-73
2023/04/05 04:08:18;;;;;;;5.65;2.17;;;;;;;;;;5016247;28;20061;-72
2023/04/05 04:10:43;;;;;;;4.10;2.03;;;;;;;;;;5016369;28;20018;-72
2023/04/05 04:13:08;;;;;;;2.65;1.98;;;;;;;;;;5016218;28;20021;-73
2023/04/05 04:15:33;;;;;;;4.15;2.20;;;;;;;;;;5016306;28;20030;-73
2023/04/05 04:17:58;;;;;;;9.35;2.47;;;;;;;;;;4998613;28;20037;-74
2023/04/05 04:20:24;;;;;;;5.82;2.38;;;;;;;;;;5016571;28;20030;-72
2023/04/05 04:22:49;;;;;;;8.00;2.22;;;;;;;;;;4998792;28;20022;-73
2023/04/05 04:25:16;;;;;;;4.77;2.17;;;;;;;;;;5016246;28;20028;-73
2023/04/05 04:27:42;;;;;;;5.72;2.70;;;;;;;;;;5016225;28;20259;-73
2023/04/05 04:30:10;;;;;;;5.85;2.33;;;;;;;;;;5016863;28;20037;-72
2023/04/05 04:32:50;;;;;;;5.75;2.53;;;;;;;;;;5017198;28;20026;-72
2023/04/05 04:35:17;;;;;;;4.55;2.40;;;;;;;;;;5017351;28;20048;-72
2023/04/05 04:37:47;;;;;;;6.40;2.22;;;;;;;;;;5000008;28;20022;-73
2023/04/05 04:40:16;;;;;;;7.70;2.40;;;;;;;;;;5018256;28;20078;-73
2023/04/05 04:42:43;;;;;;;6.38;2.42;;;;;;;;;;5018546;28;20022;-72
2023/04/05 04:45:09;;;;;;;3.92;2.22;;;;;;;;;;5018225;28;20025;-73
2023/04/05 04:47:36;;;;;;;5.35;2.20;;;;;;;;;;5019717;28;20481;-72
2023/04/05 04:50:03;;;;;;;6.95;2.55;;;;;;;;;;5020796;28;20076;-73
2023/04/05 04:52:28;;;;;;;6.18;2.40;;;;;;;;;;5018836;28;20029;-73
2023/04/05 04:54:54;;;;;;;5.47;2.60;;;;;;;;;;4998287;28;20412;-73
2023/04/05 04:57:19;;;;;;;6.03;2.47;;;;;;;;;;5016782;28;20153;-73
2023/04/05 04:59:44;;;;;;;4.78;2.67;;;;;;;;;;5016102;28;20097;-73
2023/04/05 05:02:10;;;;;;;6.38;2.78;;;;;;;;;;5016210;28;20389;-73
2023/04/05 05:04:35;;;;;;;7.00;2.40;;;;;;;;;;4998614;28;20026;-74
2023/04/05 05:07:01;;;;;;;10.95;2.50;;;;;;;;;;5015667;28;20029;-74
2023/04/05 05:09:26;;;;;;;12.85;2.97;;;;;;;;;;5015879;28;20030;-73
2023/04/05 05:11:51;;;;;;;5.38;2.67;;;;;;;;;;5014136;28;20029;-73
2023/04/05 05:14:16;;;;;;;9.65;2.92;;;;;;;;;;5015488;28;20026;-73
2023/04/05 05:16:41;;;;;;;7.20;2.50;;;;;;;;;;5015234;28;20057;-74
2023/04/05 05:19:07;;;;;;;8.95;2.75;;;;;;;;;;5015547;28;20276;-74
2023/04/05 05:21:32;;;;;;;5.97;2.50;;;;;;;;;;5015272;28;20072;-72
2023/04/05 05:23:57;;;;;;;5.88;2.08;;;;;;;;;;5015071;28;20283;-74
2023/04/05 05:26:22;;;;;;;4.73;2.70;;;;;;;;;;5015536;28;20465;-74
2023/04/05 05:28:48;;;;;;;9.20;2.88;;;;;;;;;;4997518;28;20810;-74
2023/04/05 05:31:13;;;;;;;5.45;2.70;;;;;;;;;;5015018;28;20029;-73
2023/04/05 05:33:39;;;;;;;4.80;2.30;;;;;;;;;;4997685;28;20064;-74
2023/04/05 05:36:05;;;;;;;4.80;2.53;;;;;;;;;;4997864;28;20076;-73
2023/04/05 05:38:30;;;;;;;8.48;3.05;;;;;;;;;;5014892;28;20017;-73
2023/04/05 05:40:56;;;;;;;10.38;2.30;;;;;;;;;;5014498;28;20022;-73
2023/04/05 05:43:22;;;;;;;3.55;2.00;;;;;;;;;;5014734;28;20037;-73
2023/04/05 05:45:47;;;;;;;5.45;2.47;;;;;;;;;;5015236;28;20036;-73
2023/04/05 05:48:12;;;;;;;5.47;2.80;;;;;;;;;;5015046;28;20052;-73
2023/04/05 05:50:38;;;;;;;8.60;3.00;;;;;;;;;;5014526;28;20105;-73
2023/04/05 05:53:03;;;;;;;4.03;2.40;;;;;;;;;;5014542;28;20018;-73
2023/04/05 05:55:28;;;;;;;5.93;2.45;;;;;;;;;;4996747;28;20072;-73
2023/04/05 05:57:54;;;;;;;6.80;2.88;;;;;;;;;;5014953;28;20060;-73
2023/04/05 06:00:19;;;;;;;5.45;2.78;;;;;;;;;;5014444;28;20018;-72
2023/04/05 06:02:45;;;;;;;14.30;3.47;;;;;;;;;;5014655;28;20063;-73
2023/04/05 06:05:10;;;;;;;7.03;3.08;;;;;;;;;;5013839;28;20025;-73
2023/04/05 06:07:36;;;;;;;10.88;3.47;;;;;;;;;;5013533;28;20030;-73
2023/04/05 06:10:04;;;;;;;4.53;2.50;;;;;;;;;;5013875;28;20444;-73
2023/04/05 06:12:29;;;;;;;6.47;2.97;;;;;;;;;;5014225;28;20104;-73
2023/04/05 06:14:54;;;;;;;7.00;2.95;;;;;;;;;;5013725;28;20057;-73
2023/04/05 06:17:20;;;;;;;8.98;3.25;;;;;;;;;;5013764;28;20029;-73
2023/04/05 06:19:45;;;;;;;7.53;3.20;;;;;;;;;;5013837;28;20076;-71
2023/04/05 06:22:10;;;;;;;10.20;4.03;;;;;;;;;;5014203;28;20275;-72
2023/04/05 06:24:35;;;;;;;9.50;3.77;;;;;;;;;;5014196;28;20327;-73
2023/04/05 06:27:01;;;;;;;7.47;3.67;;;;;;;;;;5016085;28;20263;-74
2023/04/05 06:29:26;;;;;;;6.32;3.17;;;;;;;;;;5016534;28;20283;-74
2023/04/05 06:31:51;;;;;;;5.93;3.35;;;;;;;;;;5015654;28;20030;-73
2023/04/05 06:34:17;;;;;;;8.65;3.55;;;;;;;;;;5015134;28;20026;-73
2023/04/05 06:36:42;;;;;;;5.85;3.42;;;;;;;;;;5014774;28;20064;-74
2023/04/05 06:39:08;;;;;;;5.25;3.20;;;;;;;;;;4995339;28;20053;-74
2023/04/05 06:41:33;;;;;;;7.47;3.38;;;;;;;;;;5013652;28;20030;-72
2023/04/05 06:43:58;;;;;;;8.80;3.17;;;;;;;;;;5012922;28;20033;-74
2023/04/05 06:46:23;;;;;;;6.33;3.30;;;;;;;;;;4996853;28;20026;-73
2023/04/05 06:48:50;;;;;;;9.73;3.65;;;;;;;;;;5012552;28;20761;-72
2023/04/05 06:51:15;;;;;;;9.20;3.15;;;;;;;;;;5011256;28;20033;-75
2023/04/05 06:53:41;;;;;;;6.75;3.35;;;;;;;;;;5011931;28;20025;-75
2023/04/05 06:56:06;;;;;;;5.80;3.35;;;;;;;;;;5011396;28;20025;-73
2023/04/05 06:58:32;;;;;;;7.97;3.45;;;;;;;;;;5011343;28;20026;-72
2023/04/05 07:00:59;;;;;;;8.23;3.40;;;;;;;;;;5011891;28;20045;-72
2023/04/05 07:03:24;;;;;;;10.73;3.83;;;;;;;;;;5013220;28;20276;-72
2023/04/05 07:05:55;;;;;;;4.82;3.03;;;;;;;;;;5013800;28;20033;-72
2023/04/05 07:08:21;;;;;;;7.18;3.28;;;;;;;;;;5013668;28;20440;-72
2023/04/05 07:10:48;;;;;;;7.25;3.53;;;;;;;;;;5013200;28;20386;-73
2023/04/05 07:13:13;;;;;;;11.05;3.55;;;;;;;;;;4995957;28;20053;-73
2023/04/05 07:15:38;;;;;;;7.22;3.33;;;;;;;;;;4995705;28;20504;-73
2023/04/05 07:18:03;;;;;;;8.05;3.50;;;;;;;;;;4998396;28;20034;-73
2023/04/05 07:20:29;;;;;;;7.70;3.83;;;;;;;;;;5017089;28;20497;-74
2023/04/05 07:22:54;;;;;;;10.38;3.72;;;;;;;;;;5017129;28;20474;-73
2023/04/05 07:25:20;;;;;;;8.40;3.30;;;;;;;;;;5016938;28;20092;-73
2023/04/05 07:27:45;;;;;;;5.10;3.05;;;;;;;;;;5017192;28;20492;-73
2023/04/05 07:30:11;;;;;;;6.07;2.75;;;;;;;;;;4999136;28;20478;-74
2023/04/05 07:32:36;;;;;;;4.00;2.72;;;;;;;;;;5016795;28;20030;-74
2023/04/05 07:35:03;;;;;;;4.95;2.72;;;;;;;;;;5017188;28;20026;-73
2023/04/05 07:37:28;;;;;;;7.68;2.70;;;;;;;;;;5017632;28;20482;-74
2023/04/05 07:39:53;;;;;;;4.87;2.60;;;;;;;;;;5017313;28;20032;-73
2023/04/05 07:42:20;;;;;;;10.27;2.80;;;;;;;;;;5016913;28;20263;-74
2023/04/05 07:44:45;;;;;;;7.20;2.42;;;;;;;;;;4999505;28;20803;-73
2023/04/05 07:47:11;;;;;;;4.47;2.63;;;;;;;;;;5016934;28;20080;-74
2023/04/05 07:49:36;;;;;;;4.00;1.70;;;;;;;;;;5016650;28;20026;-74
2023/04/05 07:52:02;;;;;;;4.43;1.73;;;;;;;;;;5016565;28;20025;-77
2023/04/05 07:54:27;;;;;;;6.63;2.22;;;;;;;;;;5016755;28;20022;-73
2023/04/05 07:56:54;;;;;;;4.50;2.50;;;;;;;;;;5017177;28;20036;-74
2023/04/05 07:59:19;;;;;;;5.80;2.40;;;;;;;;;;4998872;28;20030;-74
2023/04/05 08:01:44;;;;;;;4.10;2.30;;;;;;;;;;5016129;28;20033;-73
2023/04/05 08:04:09;;;;;;;3.88;2.08;;;;;;;;;;5016051;28;20025;-74
2023/04/05 08:06:35;;;;;;;5.63;2.40;;;;;;;;;;5016284;28;20037;-74
2023/04/05 08:09:02;;;;;;;5.88;2.50;;;;;;;;;;5016024;28;20255;-74
2023/04/05 08:11:27;;;;;;;9.45;2.38;;;;;;;;;;5016030;28;20099;-74
2023/04/05 08:13:53;;;;;;;5.00;2.17;;;;;;;;;;5016055;28;20081;-74
2023/04/05 08:16:18;;;;;;;5.78;2.45;;;;;;;;;;5015966;28;20022;-73
2023/04/05 08:18:43;;;;;;;6.00;2.55;;;;;;;;;;4998613;28;20034;-74
2023/04/05 08:21:09;;;;;;;9.18;2.60;;;;;;;;;;5016468;28;20025;-73
2023/04/05 08:23:34;;;;;;;4.97;2.38;;;;;;;;;;5016199;28;20026;-72
2023/04/05 08:25:59;;;;;;;5.70;2.10;;;;;;;;;;5015470;28;20037;-71
2023/04/05 08:28:25;;;;;;;4.10;2.30;;;;;;;;;;5015119;28;20474;-72
2023/04/05 08:30:54;;;;;;;5.03;2.40;;;;;;;;;;4997155;28;20678;-71
2023/04/05 08:33:19;;;;;;;3.38;2.13;;;;;;;;;;5015470;28;20076;-71
2023/04/05 08:35:45;;;;;;;4.72;2.50;;;;;;;;;;5014528;28;20030;-71
2023/04/05 08:38:11;;;;;;;4.03;1.90;;;;;;;;;;5014069;28;20434;-71
2023/04/05 08:40:41;;;;;;;7.72;2.83;;;;;;;;;;5014311;28;20029;-72
2023/04/05 08:43:32;;;;;;;3.85;2.30;;;;;;;;;;5014755;28;20095;-71
2023/04/05 08:45:58;;;;;;;4.13;2.40;;;;;;;;;;5013594;28;20030;-70
2023/04/05 08:48:25;;;;;;;3.30;1.77;;;;;;;;;;5014198;28;20374;-72
2023/04/05 08:50:52;;;;;;;7.10;2.30;;;;;;;;;;5014070;28;20033;-72
2023/04/05 08:53:18;;;;;;;7.78;2.08;;;;;;;;;;5016614;28;20030;-73
2023/04/05 08:55:44;;;;;;;5.00;2.42;;;;;;;;;;5016293;28;20030;-72
2023/04/05 08:58:13;;;;;;;4.50;2.30;;;;;;;;;;4997572;28;20351;-75
2023/04/05 09:00:40;;;;;;;4.60;2.75;;;;;;;;;;5014973;28;20014;-76
2023/04/05 09:03:07;;;;;;;10.65;2.28;;;;;;;;;;4996407;28;20533;-74
2023/04/05 09:05:32;;;;;;;3.67;1.98;;;;;;;;;;5013705;28;20033;-74
2023/04/05 09:07:58;;;;;;;3.17;2.00;;;;;;;;;;5015558;28;20028;-76
2023/04/05 09:10:25;;;;;;;7.05;2.28;;;;;;;;;;5014622;28;20030;-73
2023/04/05 09:12:51;;;;;;;4.10;2.22;;;;;;;;;;5014562;28;20033;-73
2023/04/05 09:15:17;;;;;;;4.85;2.28;;;;;;;;;;5014201;28;20038;-73
2023/04/05 09:17:42;;;;;;;2.33;1.75;;;;;;;;;;5014666;28;20026;-74
2023/04/05 09:20:08;;;;;;;7.75;1.80;;;;;;;;;;5013928;28;20038;-75
2023/04/05 09:22:45;;;;;;;3.80;2.25;;;;;;;;;;5013681;28;20030;-74
2023/04/05 09:25:31;;;;;;;4.25;2.45;;;;;;;;;;5013568;28;20025;-73
2023/04/05 09:27:57;;;;;;;6.38;2.42;;;;;;;;;;5012663;28;20025;-73
2023/04/05 09:30:23;;;;;;;3.67;2.22;;;;;;;;;;5013657;28;20500;-74
2023/04/05 09:32:51;;;;;;;8.02;2.10;;;;;;;;;;5014373;28;20026;-74
2023/04/05 09:35:21;;;;;;;4.18;2.00;;;;;;;;;;5013979;28;20026;-73
2023/04/05 09:38:07;;;;;;;3.33;1.83;;;;;;;;;;5014024;28;20030;-74
2023/04/05 09:40:46;;;;;;;4.05;2.20;;;;;;;;;;4996257;28;20072;-73
2023/04/05 09:43:32;;;;;;;4.47;2.17;;;;;;;;;;4996259;28;20145;-74
2023/04/05 09:45:58;;;;;;;3.85;1.95;;;;;;;;;;5013972;28;20087;-74
2023/04/05 09:48:46;;;;;;;3.53;2.00;;;;;;;;;;5014220;28;20033;-73
2023/04/05 09:51:13;;;;;;;4.50;2.10;;;;;;;;;;5013937;28;20047;-74
2023/04/05 09:54:05;;;;;;;8.43;2.17;;;;;;;;;;5013957;28;20066;-73
2023/04/05 09:56:32;;;;;;;3.40;1.90;;;;;;;;;;5014462;28;20064;-73
2023/04/05 09:59:04;;;;;;;4.53;2.40;;;;;;;;;;4996334;28;20121;-73
2023/04/05 10:01:30;;;;;;;4.15;2.20;;;;;;;;;;4996274;28;20558;-73
2023/04/05 10:03:57;;;;;;;3.55;2.10;;;;;;;;;;5013752;28;20101;-74
2023/04/05 10:06:22;;;;;;;3.97;2.40;;;;;;;;;;5014035;28;20079;-73
2023/04/05 10:08:49;;;;;;;3.97;2.30;;;;;;;;;;5013737;28;20091;-73
2023/04/05 10:11:17;;;;;;;4.28;2.17;;;;;;;;;;4996118;28;20021;-73
2023/04/05 10:13:43;;;;;;;3.92;2.13;;;;;;;;;;5013952;28;20026;-73
2023/04/05 10:16:12;;;;;;;5.25;2.20;;;;;;;;;;5013611;28;20027;-75
2023/04/05 10:18:51;;;;;;;4.80;1.88;;;;;;;;;;4995996;28;20022;-74
2023/04/05 10:21:22;;;;;;;6.40;2.20;;;;;;;;;;5013629;28;20477;-74
2023/04/05 10:23:56;;;;;;;3.88;1.83;;;;;;;;;;5013567;28;20108;-73
2023/04/05 10:26:30;;;;;;;;;;;;;;;;;;5014008;28;20448;-73
2023/04/05 10:29:00;;;;;;;6.55;2.20;;;;;;;;;;5013731;28;19909;-73
2023/04/05 10:31:45;;;;;;;6.97;2.15;;;;;;;;;;5013217;28;20030;-73
2023/04/05 10:34:29;;;;;;;3.85;1.98;;;;;;;;;;4995433;28;20048;-74
2023/04/05 10:37:00;;;;;;;2.17;1.70;;;;;;;;;;5013489;28;20030;-73
2023/04/05 10:39:44;;;;;;;3.72;1.80;;;;;;;;;;5013360;28;20393;-73
2023/04/05 10:42:33;;;;;;;2.80;1.90;;;;;;;;;;4995787;28;20037;-73
2023/04/05 10:45:03;;;;;;;3.97;1.80;;;;;;;;;;5011721;28;20054;-73
2023/04/05 10:47:33;;;;;;;3.95;1.90;;;;;;;;;;5013638;28;20473;-73
2023/04/05 10:50:02;;;;;;;3.80;1.80;;;;;;;;;;5013409;28;20033;-73
2023/04/05 10:52:28;;;;;;;5.18;1.80;;;;;;;;;;5014403;28;20433;-73
2023/04/05 10:54:56;;;;;;;3.45;1.95;;;;;;;;;;5017300;28;20049;-73
2023/04/05 10:57:22;;;;;;;3.00;1.92;;;;;;;;;;5017381;28;20033;-73
2023/04/05 10:59:48;;;;;;;4.30;1.73;;;;;;;;;;5017384;28;20084;-73
2023/04/05 11:02:13;;;;;;;4.82;1.80;;;;;;;;;;5016974;28;20440;-73
2023/04/05 11:04:42;;;;;;;4.22;1.75;;;;;;;;;;5017246;28;20021;-73
2023/04/05 11:07:17;;;;;;;3.58;2.05;;;;;;;;;;5017390;28;20034;-74
2023/04/05 11:10:03;;;;;;;3.67;1.80;;;;;;;;;;5016854;28;20033;-73
2023/04/05 11:13:01;;;;;;;5.28;1.80;;;;;;;;;;5016768;28;20045;-73
2023/04/05 11:15:30;;;;;;;4.43;1.73;;;;;;;;;;4999201;28;20032;-73
2023/04/05 11:18:03;;;;;;;6.47;2.25;;;;;;;;;;5016765;28;20018;-74
2023/04/05 11:20:40;;;;;;;4.53;2.28;;;;;;;;;;5016609;28;20481;-73
2023/04/05 11:23:05;;;;;;;2.58;1.63;;;;;;;;;;5016959;28;20026;-73
2023/04/05 11:25:32;;;;;;;3.92;2.20;;;;;;;;;;4998889;28;20025;-73
2023/04/05 11:28:00;;;;;;;3.17;1.77;;;;;;;;;;5016799;28;20049;-73
2023/04/05 11:30:47;;;;;;;5.03;2.17;;;;;;;;;;5016379;28;20028;-73
2023/04/05 11:33:35;;;;;;;3.72;1.90;;;;;;;;;;5016391;28;20030;-73
2023/04/05 11:36:01;;;;;;;3.55;2.00;;;;;;;;;;5016255;28;20497;-73
2023/04/05 11:38:27;;;;;;;7.93;1.95;;;;;;;;;;5016357;28;20080;-73
2023/04/05 11:41:05;;;;;;;3.83;1.73;;;;;;;;;;5016307;28;20025;-74
2023/04/05 11:43:30;;;;;;;4.63;1.60;;;;;;;;;;5016543;28;20029;-74
2023/04/05 11:45:55;;;;;;;4.15;1.60;;;;;;;;;;5016240;28;20029;-73
2023/04/05 11:48:21;;;;;;;3.83;1.73;;;;;;;;;;5016167;28;20067;-73
2023/04/05 11:50:46;;;;;;;3.33;1.80;;;;;;;;;;4998371;28;20034;-73
2023/04/05 11:53:15;;;;;;;2.80;1.77;;;;;;;;;;4998362;28;20022;-73
2023/04/05 11:55:43;;;;;;;3.50;1.92;;;;;;;;;;5016239;28;20034;-74
2023/04/05 11:58:15;;;;;;;4.28;1.88;;;;;;;;;;5016226;28;20026;-73
2023/04/05 12:00:42;;;;;;;4.28;1.83;;;;;;;;;;5015884;28;20045;-73
2023/04/05 12:03:12;;;;;;;4.30;1.70;;;;;;;;;;5015368;28;20529;-73
2023/04/05 12:05:54;;;;;;;4.22;1.77;;;;;;;;;;5014000;28;20057;-73
2023/04/05 12:08:21;;;;;;;4.80;2.05;;;;;;;;;;4998060;28;20076;-74
2023/04/05 12:10:57;;;;;;;5.68;2.10;;;;;;;;;;5015781;28;20049;-73
2023/04/05 12:13:27;;;;;;;3.17;1.77;;;;;;;;;;5015674;28;20080;-74
2023/04/05 12:15:52;;;;;;;5.47;1.92;;;;;;;;;;5018355;28;20105;-74
2023/04/05 12:18:17;;;;;;;2.20;1.70;;;;;;;;;;5017983;28;20061;-74
2023/04/05 12:20:43;;;;;;;4.63;1.80;;;;;;;;;;4998076;28;20481;-74
2023/04/05 12:23:08;;;;;;;6.82;2.15;;;;;;;;;;5015747;28;20481;-74
2023/04/05 12:25:37;;;;;;;3.25;1.73;;;;;;;;;;5015496;28;20025;-74
2023/04/05 12:28:04;;;;;;;2.78;1.90;;;;;;;;;;5015311;28;20033;-73
2023/04/05 12:30:35;;;;;;;3.67;1.90;;;;;;;;;;5015442;28;20030;-73
2023/04/05 12:33:06;;;;;;;3.15;1.67;;;;;;;;;;4997747;28;20053;-74
2023/04/05 12:35:33;;;;;;;4.30;1.88;;;;;;;;;;5015228;28;20092;-74
2023/04/05 12:38:02;;;;;;;4.95;1.88;;;;;;;;;;5015514;28;20029;-74
2023/04/05 12:40:29;;;;;;;3.38;1.70;;;;;;;;;;5015123;28;20106;-73
2023/04/05 12:43:06;;;;;;;3.58;1.65;;;;;;;;;;5015135;28;20057;-73
2023/04/05 12:45:38;;;;;;;3.20;1.92;;;;;;;;;;5015397;28;20569;-73
2023/04/05 12:48:12;;;;;;;3.10;1.58;;;;;;;;;;5015522;28;20037;-73
2023/04/05 12:50:42;;;;;;;2.40;1.70;;;;;;;;;;5015015;28;20482;-74
2023/04/05 12:53:07;;;;;;;4.65;2.35;;;;;;;;;;5015227;28;20080;-73
2023/04/05 12:55:42;;;;;;;3.20;1.73;;;;;;;;;;5014967;28;20420;-74
2023/04/05 12:58:07;;;;;;;2.65;1.80;;;;;;;;;;5014696;28;20285;-72
2023/04/05 13:00:32;;;;;;;2.90;1.80;;;;;;;;;;5014736;28;20113;-74
2023/04/05 13:02:58;;;;;;;3.22;1.80;;;;;;;;;;5014581;28;20041;-73
2023/04/05 13:05:25;;;;;;;5.30;2.05;;;;;;;;;;5014593;28;20036;-73
2023/04/05 13:07:51;;;;;;;5.82;2.03;;;;;;;;;;5014637;28;20080;-73
2023/04/05 13:10:18;;;;;;;3.92;1.92;;;;;;;;;;5014442;28;20485;-72
2023/04/05 13:12:44;;;;;;;6.40;1.80;;;;;;;;;;4996943;28;20054;-73
2023/04/05 13:15:09;;;;;;;4.20;1.80;;;;;;;;;;5014315;28;20053;-73
2023/04/05 13:17:35;;;;;;;2.65;1.63;;;;;;;;;;4996852;28;20036;-73
2023/04/05 13:20:00;;;;;;;3.10;1.83;;;;;;;;;;5014433;28;20069;-73
2023/04/05 13:22:25;;;;;;;4.25;1.92;;;;;;;;;;5014445;28;20055;-73
2023/04/05 13:24:52;;;;;;;10.02;1.92;;;;;;;;;;5014408;28;20366;-73
2023/04/05 13:27:18;;;;;;;3.45;2.10;;;;;;;;;;5014706;28;20068;-73
2023/04/05 13:29:44;;;;;;;3.13;1.83;;;;;;;;;;4996614;28;20485;-72
2023/04/05 13:32:09;;;;;;;4.80;1.98;;;;;;;;;;5014482;28;20029;-73
2023/04/05 13:34:34;;;;;;;4.20;1.90;;;;;;;;;;5014182;28;20028;-73
2023/04/05 13:36:59;;;;;;;4.68;1.70;;;;;;;;;;5014394;28;20033;-74
2023/04/05 13:39:25;;;;;;;3.70;1.80;;;;;;;;;;5014539;28;20037;-73
2023/04/05 13:41:50;;;;;;;3.03;1.70;;;;;;;;;;5014260;28;20263;-73
2023/04/05 13:44:15;;;;;;;3.83;1.60;;;;;;;;;;5013886;28;20274;-74
2023/04/05 13:46:40;;;;;;;3.13;1.50;;;;;;;;;;5013941;28;20259;-74
2023/04/05 13:49:05;;;;;;;3.30;1.47;;;;;;;;;;5013855;28;20175;-73
2023/04/05 13:51:33;;;;;;;2.47;1.57;;;;;;;;;;5013659;28;20306;-73
2023/04/05 13:53:58;;;;;;;3.55;1.70;;;;;;;;;;4996082;28;20293;-73
2023/04/05 13:56:23;;;;;;;2.80;1.73;;;;;;;;;;5013780;28;20025;-73
2023/04/05 13:58:49;;;;;;;2.83;1.55;;;;;;;;;;5012556;28;20030;-73
2023/04/05 14:01:14;;;;;;;2.60;1.60;;;;;;;;;;5013765;28;20025;-74
2023/04/05 14:03:39;;;;;;;3.72;1.90;;;;;;;;;;5013895;28;20529;-74
2023/04/05 14:06:04;;;;;;;2.70;1.70;;;;;;;;;;5013571;28;20030;-73
2023/04/05 14:08:30;;;;;;;2.67;1.70;;;;;;;;;;5013868;28;20025;-74
2023/04/05 14:10:55;;;;;;;3.20;2.00;;;;;;;;;;5013369;28;20028;-73
2023/04/05 14:13:21;;;;;;;3.80;1.92;;;;;;;;;;5013530;28;20436;-73
2023/04/05 14:15:46;;;;;;;3.08;1.77;;;;;;;;;;5013369;28;20030;-73
2023/04/05 14:18:11;;;;;;;3.95;1.90;;;;;;;;;;5013541;28;20029;-73
2023/04/05 14:20:37;;;;;;;2.73;1.70;;;;;;;;;;5013209;28;20033;-74
2023/04/05 14:23:03;;;;;;;3.25;1.80;;;;;;;;;;5014092;28;20325;-73
2023/04/05 14:25:29;;;;;;;3.22;1.85;;;;;;;;;;5013450;28;20052;-73
2023/04/05 14:27:54;;;;;;;2.92;1.77;;;;;;;;;;5012753;28;20029;-73
2023/04/05 14:30:19;;;;;;;2.47;1.70;;;;;;;;;;5013194;28;20026;-73
2023/04/05 14:32:45;;;;;;;3.88;2.00;;;;;;;;;;5014721;28;20032;-73
2023/04/05 14:35:10;;;;;;;3.63;1.77;;;;;;;;;;4995674;28;20052;-73
2023/04/05 14:37:36;;;;;;;2.80;1.80;;;;;;;;;;5013280;28;20030;-74
2023/04/05 14:40:01;;;;;;;2.80;1.50;;;;;;;;;;5013726;28;20259;-74
2023/04/05 14:42:26;;;;;;;5.67;1.60;;;;;;;;;;4995424;28;20298;-73
2023/04/05 14:44:51;;;;;;;3.03;1.70;;;;;;;;;;5013612;28;20259;-74
2023/04/05 14:47:17;;;;;;;2.70;1.40;;;;;;;;;;5013035;28;20376;-73